Vuktyl, Russia
Current Conditions -  °F | °C
As of 6:00 AM on Wednesday 22 Oct 2014 (Local Time) from UUYY Reporting Station
Clear Clear  
Wind Chill: -13°   Ceiling: Unl
Heat Index:   Visibility: 6mi
Dew Point: -4°   Wind: 9mph
Humidity: 78%   Direction: 10°N
Pressure: 29.91"   Gusts: NA
Location:  63.86°N, 57.31°E
Report Text: UUYY 220300Z 01004MPS CAVOK M17/M20 Q1013 NOSIG 01CLRD61 RMKQFE751/1001
Loading
Personal Weather Stations






























Interactive Weather Map
Tropical Storm Tracking
New forecast layout! Learn more

10-Day Weather Forecast

Advertisements
Track Severe Weather on mobile